sensor_id;sensor_type;location;lat;lon;timestamp;P1;durP1;ratioP1;P2;durP2;ratioP2
11582;SDS011;34299;50.820;4.548;2023-05-10T00:00:39;8.93;;;5.67;;
11582;SDS011;34299;50.820;4.548;2023-05-10T00:03:07;6.47;;;4.43;;
11582;SDS011;34299;50.820;4.548;2023-05-10T00:05:34;8.67;;;5.20;;
11582;SDS011;34299;50.820;4.548;2023-05-10T00:08:01;10.57;;;4.67;;
11582;SDS011;34299;50.820;4.548;2023-05-10T00:10:29;9.40;;;4.83;;
11582;SDS011;34299;50.820;4.548;2023-05-10T00:12:56;9.10;;;5.20;;
11582;SDS011;34299;50.820;4.548;2023-05-10T00:15:23;8.93;;;5.20;;
11582;SDS011;34299;50.820;4.548;2023-05-10T00:17:52;7.57;;;4.30;;
11582;SDS011;34299;50.820;4.548;2023-05-10T00:20:19;10.60;;;5.40;;
11582;SDS011;34299;50.820;4.548;2023-05-10T00:22:46;8.90;;;5.10;;
11582;SDS011;34299;50.820;4.548;2023-05-10T00:25:13;8.33;;;4.73;;
11582;SDS011;34299;50.820;4.548;2023-05-10T00:27:41;9.80;;;5.07;;
11582;SDS011;34299;50.820;4.548;2023-05-10T00:30:08;10.33;;;5.20;;
11582;SDS011;34299;50.820;4.548;2023-05-10T00:32:35;10.13;;;4.63;;
11582;SDS011;34299;50.820;4.548;2023-05-10T00:35:04;10.87;;;5.23;;
11582;SDS011;34299;50.820;4.548;2023-05-10T00:37:32;8.53;;;5.70;;
11582;SDS011;34299;50.820;4.548;2023-05-10T00:39:59;9.33;;;5.63;;
11582;SDS011;34299;50.820;4.548;2023-05-10T00:42:26;13.80;;;6.57;;
11582;SDS011;34299;50.820;4.548;2023-05-10T00:44:53;8.10;;;5.90;;
11582;SDS011;34299;50.820;4.548;2023-05-10T00:47:21;8.53;;;5.73;;
11582;SDS011;34299;50.820;4.548;2023-05-10T00:49:48;12.13;;;6.73;;
11582;SDS011;34299;50.820;4.548;2023-05-10T00:52:18;12.30;;;6.33;;
11582;SDS011;34299;50.820;4.548;2023-05-10T00:54:46;10.13;;;6.57;;
11582;SDS011;34299;50.820;4.548;2023-05-10T00:57:14;10.20;;;6.73;;
11582;SDS011;34299;50.820;4.548;2023-05-10T00:59:41;13.47;;;7.23;;
11582;SDS011;34299;50.820;4.548;2023-05-10T01:02:08;12.77;;;6.47;;
11582;SDS011;34299;50.820;4.548;2023-05-10T01:04:36;15.43;;;5.83;;
11582;SDS011;34299;50.820;4.548;2023-05-10T01:07:04;12.47;;;6.93;;
11582;SDS011;34299;50.820;4.548;2023-05-10T01:09:33;11.97;;;6.80;;
11582;SDS011;34299;50.820;4.548;2023-05-10T01:12:01;9.07;;;6.40;;
11582;SDS011;34299;50.820;4.548;2023-05-10T01:14:29;9.00;;;6.17;;
11582;SDS011;34299;50.820;4.548;2023-05-10T01:16:57;14.60;;;6.57;;
11582;SDS011;34299;50.820;4.548;2023-05-10T01:19:25;13.70;;;6.80;;
11582;SDS011;34299;50.820;4.548;2023-05-10T01:21:58;11.00;;;7.03;;
11582;SDS011;34299;50.820;4.548;2023-05-10T01:24:35;13.50;;;7.50;;
11582;SDS011;34299;50.820;4.548;2023-05-10T01:27:14;12.10;;;7.03;;
11582;SDS011;34299;50.820;4.548;2023-05-10T01:29:51;17.60;;;6.80;;
11582;SDS011;34299;50.820;4.548;2023-05-10T01:32:22;11.57;;;6.47;;
11582;SDS011;34299;50.820;4.548;2023-05-10T01:34:54;12.23;;;6.37;;
11582;SDS011;34299;50.820;4.548;2023-05-10T01:37:25;12.70;;;6.30;;
11582;SDS011;34299;50.820;4.548;2023-05-10T01:39:58;15.20;;;7.00;;
11582;SDS011;34299;50.820;4.548;2023-05-10T01:42:28;13.07;;;6.77;;
11582;SDS011;34299;50.820;4.548;2023-05-10T01:45:00;14.43;;;6.90;;
11582;SDS011;34299;50.820;4.548;2023-05-10T01:47:31;14.17;;;6.77;;
11582;SDS011;34299;50.820;4.548;2023-05-10T01:50:01;10.53;;;7.03;;
11582;SDS011;34299;50.820;4.548;2023-05-10T01:52:30;11.27;;;7.40;;
11582;SDS011;34299;50.820;4.548;2023-05-10T01:54:59;13.53;;;7.67;;
11582;SDS011;34299;50.820;4.548;2023-05-10T01:57:30;11.50;;;6.90;;
11582;SDS011;34299;50.820;4.548;2023-05-10T01:59:58;9.70;;;6.37;;
11582;SDS011;34299;50.820;4.548;2023-05-10T02:02:26;12.60;;;6.97;;
11582;SDS011;34299;50.820;4.548;2023-05-10T02:04:55;14.37;;;7.87;;
11582;SDS011;34299;50.820;4.548;2023-05-10T02:07:23;15.13;;;7.57;;
11582;SDS011;34299;50.820;4.548;2023-05-10T02:09:51;14.33;;;7.53;;
11582;SDS011;34299;50.820;4.548;2023-05-10T02:12:18;13.57;;;8.27;;
11582;SDS011;34299;50.820;4.548;2023-05-10T02:14:46;12.10;;;7.30;;
11582;SDS011;34299;50.820;4.548;2023-05-10T02:17:14;11.93;;;6.80;;
11582;SDS011;34299;50.820;4.548;2023-05-10T02:19:42;12.70;;;7.53;;
11582;SDS011;34299;50.820;4.548;2023-05-10T02:22:11;14.50;;;7.97;;
11582;SDS011;34299;50.820;4.548;2023-05-10T02:24:39;15.77;;;7.23;;
11582;SDS011;34299;50.820;4.548;2023-05-10T02:27:07;14.13;;;7.80;;
11582;SDS011;34299;50.820;4.548;2023-05-10T02:29:36;13.57;;;7.37;;
11582;SDS011;34299;50.820;4.548;2023-05-10T02:32:04;13.00;;;7.70;;
11582;SDS011;34299;50.820;4.548;2023-05-10T02:34:31;13.43;;;8.20;;
11582;SDS011;34299;50.820;4.548;2023-05-10T02:36:58;12.47;;;6.53;;
11582;SDS011;34299;50.820;4.548;2023-05-10T02:39:28;13.73;;;8.00;;
11582;SDS011;34299;50.820;4.548;2023-05-10T02:41:56;10.83;;;7.63;;
11582;SDS011;34299;50.820;4.548;2023-05-10T02:44:24;13.07;;;7.97;;
11582;SDS011;34299;50.820;4.548;2023-05-10T02:46:56;12.33;;;7.07;;
11582;SDS011;34299;50.820;4.548;2023-05-10T02:49:23;15.90;;;7.57;;
11582;SDS011;34299;50.820;4.548;2023-05-10T02:51:51;10.97;;;7.93;;
11582;SDS011;34299;50.820;4.548;2023-05-10T02:54:21;9.20;;;5.83;;
11582;SDS011;34299;50.820;4.548;2023-05-10T02:56:53;11.53;;;6.37;;
11582;SDS011;34299;50.820;4.548;2023-05-10T02:59:23;11.63;;;6.70;;
11582;SDS011;34299;50.820;4.548;2023-05-10T03:01:50;12.23;;;7.47;;
11582;SDS011;34299;50.820;4.548;2023-05-10T03:04:18;11.53;;;5.67;;
11582;SDS011;34299;50.820;4.548;2023-05-10T03:06:45;14.23;;;6.13;;
11582;SDS011;34299;50.820;4.548;2023-05-10T03:09:13;7.70;;;4.20;;
11582;SDS011;34299;50.820;4.548;2023-05-10T03:11:43;16.07;;;6.97;;
11582;SDS011;34299;50.820;4.548;2023-05-10T03:14:21;13.37;;;6.50;;
11582;SDS011;34299;50.820;4.548;2023-05-10T03:16:52;12.43;;;6.67;;
11582;SDS011;34299;50.820;4.548;2023-05-10T03:19:24;13.50;;;7.60;;
11582;SDS011;34299;50.820;4.548;2023-05-10T03:21:52;11.23;;;6.63;;
11582;SDS011;34299;50.820;4.548;2023-05-10T03:24:20;10.17;;;6.67;;
11582;SDS011;34299;50.820;4.548;2023-05-10T03:26:48;14.53;;;7.23;;
11582;SDS011;34299;50.820;4.548;2023-05-10T03:29:17;15.10;;;7.33;;
11582;SDS011;34299;50.820;4.548;2023-05-10T03:31:45;13.73;;;6.00;;
11582;SDS011;34299;50.820;4.548;2023-05-10T03:34:12;16.47;;;6.33;;
11582;SDS011;34299;50.820;4.548;2023-05-10T03:36:39;11.83;;;6.80;;
11582;SDS011;34299;50.820;4.548;2023-05-10T03:39:07;13.57;;;7.57;;
11582;SDS011;34299;50.820;4.548;2023-05-10T03:41:35;18.23;;;8.30;;
11582;SDS011;34299;50.820;4.548;2023-05-10T03:44:02;17.57;;;7.70;;
11582;SDS011;34299;50.820;4.548;2023-05-10T03:46:31;13.90;;;6.50;;
11582;SDS011;34299;50.820;4.548;2023-05-10T03:48:58;16.83;;;8.40;;
11582;SDS011;34299;50.820;4.548;2023-05-10T03:51:25;15.90;;;7.33;;
11582;SDS011;34299;50.820;4.548;2023-05-10T03:53:53;12.77;;;6.73;;
11582;SDS011;34299;50.820;4.548;2023-05-10T03:56:20;11.87;;;6.73;;
11582;SDS011;34299;50.820;4.548;2023-05-10T03:58:47;14.37;;;7.37;;
11582;SDS011;34299;50.820;4.548;2023-05-10T04:01:15;13.67;;;7.17;;
11582;SDS011;34299;50.820;4.548;2023-05-10T04:03:43;11.87;;;6.83;;
11582;SDS011;34299;50.820;4.548;2023-05-10T04:06:10;15.90;;;7.60;;
11582;SDS011;34299;50.820;4.548;2023-05-10T04:08:38;13.83;;;6.00;;
11582;SDS011;34299;50.820;4.548;2023-05-10T04:11:05;11.77;;;6.67;;
11582;SDS011;34299;50.820;4.548;2023-05-10T04:13:33;13.87;;;6.97;;
11582;SDS011;34299;50.820;4.548;2023-05-10T04:16:01;16.37;;;7.47;;
11582;SDS011;34299;50.820;4.548;2023-05-10T04:18:28;12.83;;;6.43;;
11582;SDS011;34299;50.820;4.548;2023-05-10T04:20:57;12.80;;;6.67;;
11582;SDS011;34299;50.820;4.548;2023-05-10T04:23:24;16.33;;;7.77;;
11582;SDS011;34299;50.820;4.548;2023-05-10T04:25:52;20.53;;;7.30;;
11582;SDS011;34299;50.820;4.548;2023-05-10T04:28:19;15.10;;;8.57;;
11582;SDS011;34299;50.820;4.548;2023-05-10T04:30:47;17.87;;;7.90;;
11582;SDS011;34299;50.820;4.548;2023-05-10T04:33:14;15.47;;;8.37;;
11582;SDS011;34299;50.820;4.548;2023-05-10T04:35:41;18.90;;;8.40;;
11582;SDS011;34299;50.820;4.548;2023-05-10T04:38:11;15.17;;;8.57;;
11582;SDS011;34299;50.820;4.548;2023-05-10T04:40:38;15.40;;;8.73;;
11582;SDS011;34299;50.820;4.548;2023-05-10T04:43:05;16.80;;;9.03;;
11582;SDS011;34299;50.820;4.548;2023-05-10T04:45:32;16.80;;;9.23;;
11582;SDS011;34299;50.820;4.548;2023-05-10T04:47:59;12.63;;;7.80;;
11582;SDS011;34299;50.820;4.548;2023-05-10T04:50:26;17.60;;;9.20;;
11582;SDS011;34299;50.820;4.548;2023-05-10T04:52:54;17.40;;;8.67;;
11582;SDS011;34299;50.820;4.548;2023-05-10T04:55:22;18.33;;;8.60;;
11582;SDS011;34299;50.820;4.548;2023-05-10T04:57:50;17.47;;;8.73;;
11582;SDS011;34299;50.820;4.548;2023-05-10T05:00:17;15.00;;;8.33;;
11582;SDS011;34299;50.820;4.548;2023-05-10T05:02:44;19.20;;;9.87;;
11582;SDS011;34299;50.820;4.548;2023-05-10T05:05:12;20.63;;;9.97;;
11582;SDS011;34299;50.820;4.548;2023-05-10T05:07:39;20.77;;;9.43;;
11582;SDS011;34299;50.820;4.548;2023-05-10T05:10:07;19.00;;;10.93;;
11582;SDS011;34299;50.820;4.548;2023-05-10T05:12:37;20.80;;;10.87;;
11582;SDS011;34299;50.820;4.548;2023-05-10T05:15:04;22.43;;;11.13;;
11582;SDS011;34299;50.820;4.548;2023-05-10T05:17:33;22.57;;;10.63;;
11582;SDS011;34299;50.820;4.548;2023-05-10T05:20:00;20.77;;;10.93;;
11582;SDS011;34299;50.820;4.548;2023-05-10T05:22:28;19.67;;;11.30;;
11582;SDS011;34299;50.820;4.548;2023-05-10T05:24:55;22.57;;;10.43;;
11582;SDS011;34299;50.820;4.548;2023-05-10T05:27:23;23.03;;;10.90;;
11582;SDS011;34299;50.820;4.548;2023-05-10T05:29:54;25.20;;;11.73;;
11582;SDS011;34299;50.820;4.548;2023-05-10T05:32:21;20.83;;;11.07;;
11582;SDS011;34299;50.820;4.548;2023-05-10T05:34:49;22.37;;;10.83;;
11582;SDS011;34299;50.820;4.548;2023-05-10T05:37:16;22.83;;;11.90;;
11582;SDS011;34299;50.820;4.548;2023-05-10T05:39:44;28.60;;;12.67;;
11582;SDS011;34299;50.820;4.548;2023-05-10T05:42:12;21.17;;;12.23;;
11582;SDS011;34299;50.820;4.548;2023-05-10T05:44:39;27.30;;;11.80;;
11582;SDS011;34299;50.820;4.548;2023-05-10T05:47:08;20.27;;;11.10;;
11582;SDS011;34299;50.820;4.548;2023-05-10T05:49:36;18.00;;;8.60;;
11582;SDS011;34299;50.820;4.548;2023-05-10T05:52:03;11.33;;;7.57;;
11582;SDS011;34299;50.820;4.548;2023-05-10T05:54:31;9.63;;;5.50;;
11582;SDS011;34299;50.820;4.548;2023-05-10T05:56:58;9.57;;;4.80;;
11582;SDS011;34299;50.820;4.548;2023-05-10T05:59:26;8.97;;;4.70;;
11582;SDS011;34299;50.820;4.548;2023-05-10T06:01:53;7.20;;;4.53;;
11582;SDS011;34299;50.820;4.548;2023-05-10T06:04:22;7.50;;;4.73;;
11582;SDS011;34299;50.820;4.548;2023-05-10T06:06:49;9.50;;;4.83;;
11582;SDS011;34299;50.820;4.548;2023-05-10T06:09:16;8.70;;;4.27;;
11582;SDS011;34299;50.820;4.548;2023-05-10T06:11:43;8.37;;;4.60;;
11582;SDS011;34299;50.820;4.548;2023-05-10T06:14:11;8.00;;;4.87;;
11582;SDS011;34299;50.820;4.548;2023-05-10T06:16:38;5.83;;;3.63;;
11582;SDS011;34299;50.820;4.548;2023-05-10T06:19:05;5.87;;;3.00;;
11582;SDS011;34299;50.820;4.548;2023-05-10T06:21:34;6.07;;;3.43;;
11582;SDS011;34299;50.820;4.548;2023-05-10T06:24:01;4.73;;;3.00;;
11582;SDS011;34299;50.820;4.548;2023-05-10T06:26:28;5.67;;;2.80;;
11582;SDS011;34299;50.820;4.548;2023-05-10T06:28:56;6.07;;;2.70;;
11582;SDS011;34299;50.820;4.548;2023-05-10T06:31:23;4.87;;;2.10;;
11582;SDS011;34299;50.820;4.548;2023-05-10T06:33:50;4.70;;;2.70;;
11582;SDS011;34299;50.820;4.548;2023-05-10T06:36:18;2.87;;;2.00;;
11582;SDS011;34299;50.820;4.548;2023-05-10T06:38:46;3.33;;;2.77;;
11582;SDS011;34299;50.820;4.548;2023-05-10T06:41:13;3.13;;;1.93;;
11582;SDS011;34299;50.820;4.548;2023-05-10T06:43:41;2.93;;;2.20;;
11582;SDS011;34299;50.820;4.548;2023-05-10T06:46:08;4.60;;;2.53;;
11582;SDS011;34299;50.820;4.548;2023-05-10T06:48:35;3.07;;;2.10;;
11582;SDS011;34299;50.820;4.548;2023-05-10T06:51:03;5.00;;;2.70;;
11582;SDS011;34299;50.820;4.548;2023-05-10T06:53:30;3.77;;;2.20;;
11582;SDS011;34299;50.820;4.548;2023-05-10T06:55:59;3.90;;;2.00;;
11582;SDS011;34299;50.820;4.548;2023-05-10T06:58:29;4.70;;;2.80;;
11582;SDS011;34299;50.820;4.548;2023-05-10T07:01:01;5.37;;;2.80;;
11582;SDS011;34299;50.820;4.548;2023-05-10T07:03:29;3.90;;;2.47;;
11582;SDS011;34299;50.820;4.548;2023-05-10T07:05:59;3.77;;;2.27;;
11582;SDS011;34299;50.820;4.548;2023-05-10T07:08:28;4.83;;;2.00;;
11582;SDS011;34299;50.820;4.548;2023-05-10T07:11:00;2.17;;;1.40;;
11582;SDS011;34299;50.820;4.548;2023-05-10T07:13:28;1.50;;;1.30;;
11582;SDS011;34299;50.820;4.548;2023-05-10T07:15:56;1.70;;;1.40;;
11582;SDS011;34299;50.820;4.548;2023-05-10T07:18:23;2.43;;;1.60;;
11582;SDS011;34299;50.820;4.548;2023-05-10T07:20:51;2.90;;;1.77;;
11582;SDS011;34299;50.820;4.548;2023-05-10T07:23:18;3.53;;;1.80;;
11582;SDS011;34299;50.820;4.548;2023-05-10T07:25:46;2.90;;;2.60;;
11582;SDS011;34299;50.820;4.548;2023-05-10T07:28:15;4.67;;;3.10;;
11582;SDS011;34299;50.820;4.548;2023-05-10T07:30:42;9.23;;;3.47;;
11582;SDS011;34299;50.820;4.548;2023-05-10T07:33:10;5.30;;;2.83;;
11582;SDS011;34299;50.820;4.548;2023-05-10T07:35:38;6.13;;;3.33;;
11582;SDS011;34299;50.820;4.548;2023-05-10T07:38:05;6.07;;;3.60;;
11582;SDS011;34299;50.820;4.548;2023-05-10T07:40:32;7.30;;;3.57;;
11582;SDS011;34299;50.820;4.548;2023-05-10T07:42:59;9.23;;;3.87;;
11582;SDS011;34299;50.820;4.548;2023-05-10T07:45:29;11.07;;;4.47;;
11582;SDS011;34299;50.820;4.548;2023-05-10T07:47:57;8.60;;;4.20;;
11582;SDS011;34299;50.820;4.548;2023-05-10T07:50:25;4.87;;;3.50;;
11582;SDS011;34299;50.820;4.548;2023-05-10T07:52:52;6.47;;;3.50;;
11582;SDS011;34299;50.820;4.548;2023-05-10T07:55:19;9.00;;;4.70;;
11582;SDS011;34299;50.820;4.548;2023-05-10T07:57:47;8.67;;;4.30;;
11582;SDS011;34299;50.820;4.548;2023-05-10T08:00:16;8.70;;;4.60;;
11582;SDS011;34299;50.820;4.548;2023-05-10T08:02:46;7.30;;;4.47;;
11582;SDS011;34299;50.820;4.548;2023-05-10T08:05:13;7.07;;;4.90;;
11582;SDS011;34299;50.820;4.548;2023-05-10T08:07:41;7.93;;;4.53;;
11582;SDS011;34299;50.820;4.548;2023-05-10T08:10:08;6.67;;;4.30;;
11582;SDS011;34299;50.820;4.548;2023-05-10T08:12:37;7.80;;;4.60;;
11582;SDS011;34299;50.820;4.548;2023-05-10T08:15:05;12.43;;;4.97;;
11582;SDS011;34299;50.820;4.548;2023-05-10T08:17:32;8.20;;;4.70;;
11582;SDS011;34299;50.820;4.548;2023-05-10T08:20:01;6.47;;;3.70;;
11582;SDS011;34299;50.820;4.548;2023-05-10T08:22:28;8.20;;;4.50;;
11582;SDS011;34299;50.820;4.548;2023-05-10T08:24:55;4.90;;;3.33;;
11582;SDS011;34299;50.820;4.548;2023-05-10T08:27:23;5.30;;;3.30;;
11582;SDS011;34299;50.820;4.548;2023-05-10T08:29:50;6.30;;;4.27;;
11582;SDS011;34299;50.820;4.548;2023-05-10T08:32:17;6.03;;;3.73;;
11582;SDS011;34299;50.820;4.548;2023-05-10T08:34:44;6.10;;;3.80;;
11582;SDS011;34299;50.820;4.548;2023-05-10T08:37:13;6.67;;;2.83;;
11582;SDS011;34299;50.820;4.548;2023-05-10T08:39:42;4.93;;;3.07;;
11582;SDS011;34299;50.820;4.548;2023-05-10T08:42:10;4.70;;;2.73;;
11582;SDS011;34299;50.820;4.548;2023-05-10T08:44:38;5.40;;;2.87;;
11582;SDS011;34299;50.820;4.548;2023-05-10T08:47:06;4.20;;;2.90;;
11582;SDS011;34299;50.820;4.548;2023-05-10T08:49:33;3.83;;;2.90;;
11582;SDS011;34299;50.820;4.548;2023-05-10T08:52:02;5.13;;;2.10;;
11582;SDS011;34299;50.820;4.548;2023-05-10T08:54:33;5.97;;;3.20;;
11582;SDS011;34299;50.820;4.548;2023-05-10T08:57:00;3.90;;;2.77;;
11582;SDS011;34299;50.820;4.548;2023-05-10T08:59:28;5.27;;;3.00;;
11582;SDS011;34299;50.820;4.548;2023-05-10T09:01:55;4.03;;;2.40;;
11582;SDS011;34299;50.820;4.548;2023-05-10T09:04:24;3.53;;;2.50;;
11582;SDS011;34299;50.820;4.548;2023-05-10T09:06:52;3.87;;;2.87;;
11582;SDS011;34299;50.820;4.548;2023-05-10T09:09:19;4.63;;;2.87;;
11582;SDS011;34299;50.820;4.548;2023-05-10T09:11:48;3.20;;;2.10;;
11582;SDS011;34299;50.820;4.548;2023-05-10T09:14:16;6.20;;;2.80;;
11582;SDS011;34299;50.820;4.548;2023-05-10T09:16:46;5.70;;;2.93;;
11582;SDS011;34299;50.820;4.548;2023-05-10T09:19:13;3.53;;;2.30;;
11582;SDS011;34299;50.820;4.548;2023-05-10T09:21:40;4.50;;;3.07;;
11582;SDS011;34299;50.820;4.548;2023-05-10T09:24:08;4.50;;;2.53;;
11582;SDS011;34299;50.820;4.548;2023-05-10T09:26:35;2.90;;;2.17;;
11582;SDS011;34299;50.820;4.548;2023-05-10T09:29:14;3.63;;;2.40;;
11582;SDS011;34299;50.820;4.548;2023-05-10T09:31:45;4.57;;;2.67;;
11582;SDS011;34299;50.820;4.548;2023-05-10T09:34:15;2.47;;;1.97;;
11582;SDS011;34299;50.820;4.548;2023-05-10T09:36:52;5.00;;;2.40;;
11582;SDS011;34299;50.820;4.548;2023-05-10T09:39:20;2.83;;;1.90;;
11582;SDS011;34299;50.820;4.548;2023-05-10T09:41:47;2.70;;;1.80;;
11582;SDS011;34299;50.820;4.548;2023-05-10T09:44:17;2.17;;;1.83;;
11582;SDS011;34299;50.820;4.548;2023-05-10T09:46:48;4.13;;;2.20;;
11582;SDS011;34299;50.820;4.548;2023-05-10T09:49:17;6.27;;;2.33;;
11582;SDS011;34299;50.820;4.548;2023-05-10T09:51:45;2.57;;;1.60;;
11582;SDS011;34299;50.820;4.548;2023-05-10T09:54:13;3.70;;;2.17;;
11582;SDS011;34299;50.820;4.548;2023-05-10T09:56:41;2.40;;;1.73;;
11582;SDS011;34299;50.820;4.548;2023-05-10T09:59:09;2.80;;;2.17;;
11582;SDS011;34299;50.820;4.548;2023-05-10T10:01:38;5.67;;;2.37;;
11582;SDS011;34299;50.820;4.548;2023-05-10T10:04:07;2.70;;;1.90;;
11582;SDS011;34299;50.820;4.548;2023-05-10T10:06:37;2.73;;;1.87;;
11582;SDS011;34299;50.820;4.548;2023-05-10T10:09:04;3.93;;;1.63;;
11582;SDS011;34299;50.820;4.548;2023-05-10T10:11:33;3.93;;;1.53;;
11582;SDS011;34299;50.820;4.548;2023-05-10T10:14:00;1.97;;;1.20;;
11582;SDS011;34299;50.820;4.548;2023-05-10T10:16:28;2.47;;;1.57;;
11582;SDS011;34299;50.820;4.548;2023-05-10T10:18:57;1.57;;;1.40;;
11582;SDS011;34299;50.820;4.548;2023-05-10T10:21:24;1.57;;;1.20;;
11582;SDS011;34299;50.820;4.548;2023-05-10T10:23:51;1.70;;;1.43;;
11582;SDS011;34299;50.820;4.548;2023-05-10T10:26:19;2.07;;;1.40;;
11582;SDS011;34299;50.820;4.548;2023-05-10T10:28:48;1.70;;;1.60;;
11582;SDS011;34299;50.820;4.548;2023-05-10T10:31:17;1.70;;;1.37;;
11582;SDS011;34299;50.820;4.548;2023-05-10T10:34:01;0.90;;;0.87;;
11582;SDS011;34299;50.820;4.548;2023-05-10T10:36:30;1.50;;;1.40;;
11582;SDS011;34299;50.820;4.548;2023-05-10T10:38:59;0.90;;;0.90;;
11582;SDS011;34299;50.820;4.548;2023-05-10T10:41:28;1.20;;;1.10;;
11582;SDS011;34299;50.820;4.548;2023-05-10T10:49:25;1.53;;;0.87;;
11582;SDS011;34299;50.820;4.548;2023-05-10T10:54:39;2.97;;;0.97;;
11582;SDS011;34299;50.820;4.548;2023-05-10T10:57:10;2.07;;;1.00;;
11582;SDS011;34299;50.820;4.548;2023-05-10T10:59:41;1.87;;;1.17;;
11582;SDS011;34299;50.820;4.548;2023-05-10T11:02:09;1.53;;;1.20;;
11582;SDS011;34299;50.820;4.548;2023-05-10T11:04:46;1.43;;;1.20;;
11582;SDS011;34299;50.820;4.548;2023-05-10T11:07:17;1.17;;;1.10;;
11582;SDS011;34299;50.820;4.548;2023-05-10T11:09:45;1.20;;;1.00;;
11582;SDS011;34299;50.820;4.548;2023-05-10T11:12:13;1.23;;;1.10;;
11582;SDS011;34299;50.820;4.548;2023-05-10T11:14:41;1.60;;;1.50;;
11582;SDS011;34299;50.820;4.548;2023-05-10T11:17:23;1.47;;;1.37;;
11582;SDS011;34299;50.820;4.548;2023-05-10T11:22:52;3.33;;;1.47;;
11582;SDS011;34299;50.820;4.548;2023-05-10T11:25:19;2.37;;;1.53;;
11582;SDS011;34299;50.820;4.548;2023-05-10T11:27:47;1.57;;;1.40;;
11582;SDS011;34299;50.820;4.548;2023-05-10T11:30:15;2.93;;;1.80;;
11582;SDS011;34299;50.820;4.548;2023-05-10T11:32:42;1.70;;;1.60;;
11582;SDS011;34299;50.820;4.548;2023-05-10T11:35:09;2.13;;;1.97;;
11582;SDS011;34299;50.820;4.548;2023-05-10T11:37:37;2.10;;;1.90;;
11582;SDS011;34299;50.820;4.548;2023-05-10T11:40:10;4.23;;;2.10;;
11582;SDS011;34299;50.820;4.548;2023-05-10T11:42:38;2.30;;;2.10;;
11582;SDS011;34299;50.820;4.548;2023-05-10T11:45:06;3.73;;;2.57;;
11582;SDS011;34299;50.820;4.548;2023-05-10T11:47:33;3.70;;;2.00;;
11582;SDS011;34299;50.820;4.548;2023-05-10T11:50:02;2.67;;;2.10;;
11582;SDS011;34299;50.820;4.548;2023-05-10T11:52:29;3.33;;;2.23;;
11582;SDS011;34299;50.820;4.548;2023-05-10T11:55:02;3.10;;;2.40;;
11582;SDS011;34299;50.820;4.548;2023-05-10T11:57:31;2.63;;;2.07;;
11582;SDS011;34299;50.820;4.548;2023-05-10T11:59:59;4.67;;;2.27;;
11582;SDS011;34299;50.820;4.548;2023-05-10T12:02:28;3.50;;;2.40;;
11582;SDS011;34299;50.820;4.548;2023-05-10T12:04:56;2.40;;;2.17;;
11582;SDS011;34299;50.820;4.548;2023-05-10T12:07:23;1.93;;;1.67;;
11582;SDS011;34299;50.820;4.548;2023-05-10T12:10:06;3.10;;;2.10;;
11582;SDS011;34299;50.820;4.548;2023-05-10T12:12:38;2.60;;;2.30;;
11582;SDS011;34299;50.820;4.548;2023-05-10T12:15:10;2.73;;;2.40;;
11582;SDS011;34299;50.820;4.548;2023-05-10T12:17:38;2.07;;;1.87;;
11582;SDS011;34299;50.820;4.548;2023-05-10T12:20:15;2.23;;;2.03;;
11582;SDS011;34299;50.820;4.548;2023-05-10T12:22:46;3.27;;;1.97;;
11582;SDS011;34299;50.820;4.548;2023-05-10T12:25:13;2.53;;;2.33;;
11582;SDS011;34299;50.820;4.548;2023-05-10T12:27:48;3.93;;;2.40;;
11582;SDS011;34299;50.820;4.548;2023-05-10T12:30:19;2.27;;;1.80;;
11582;SDS011;34299;50.820;4.548;2023-05-10T12:32:46;2.83;;;2.03;;
11582;SDS011;34299;50.820;4.548;2023-05-10T12:35:14;2.30;;;2.10;;
11582;SDS011;34299;50.820;4.548;2023-05-10T12:37:41;2.33;;;2.10;;
11582;SDS011;34299;50.820;4.548;2023-05-10T12:40:09;3.53;;;1.83;;
11582;SDS011;34299;50.820;4.548;2023-05-10T12:42:37;2.30;;;2.10;;
11582;SDS011;34299;50.820;4.548;2023-05-10T12:45:07;2.17;;;1.97;;
11582;SDS011;34299;50.820;4.548;2023-05-10T12:47:34;1.97;;;1.80;;
11582;SDS011;34299;50.820;4.548;2023-05-10T12:50:02;2.20;;;2.00;;
11582;SDS011;34299;50.820;4.548;2023-05-10T12:52:30;2.33;;;1.80;;
11582;SDS011;34299;50.820;4.548;2023-05-10T12:54:58;1.80;;;1.70;;
11582;SDS011;34299;50.820;4.548;2023-05-10T12:57:25;2.93;;;1.93;;
11582;SDS011;34299;50.820;4.548;2023-05-10T12:59:54;2.40;;;2.10;;
11582;SDS011;34299;50.820;4.548;2023-05-10T13:02:22;2.10;;;1.80;;
11582;SDS011;34299;50.820;4.548;2023-05-10T13:04:50;1.90;;;1.70;;
11582;SDS011;34299;50.820;4.548;2023-05-10T13:07:17;2.37;;;1.80;;
11582;SDS011;34299;50.820;4.548;2023-05-10T13:09:45;2.23;;;2.03;;
11582;SDS011;34299;50.820;4.548;2023-05-10T13:12:12;3.47;;;1.77;;
11582;SDS011;34299;50.820;4.548;2023-05-10T13:14:39;2.20;;;2.00;;
11582;SDS011;34299;50.820;4.548;2023-05-10T13:17:06;2.00;;;1.80;;
11582;SDS011;34299;50.820;4.548;2023-05-10T13:19:35;2.17;;;1.97;;
11582;SDS011;34299;50.820;4.548;2023-05-10T13:22:02;2.50;;;1.80;;
11582;SDS011;34299;50.820;4.548;2023-05-10T13:24:30;3.17;;;1.80;;
11582;SDS011;34299;50.820;4.548;2023-05-10T13:26:57;3.40;;;2.10;;
11582;SDS011;34299;50.820;4.548;2023-05-10T13:29:25;3.53;;;1.90;;
11582;SDS011;34299;50.820;4.548;2023-05-10T13:31:52;2.63;;;2.20;;
11582;SDS011;34299;50.820;4.548;2023-05-10T13:34:19;3.20;;;1.90;;
11582;SDS011;34299;50.820;4.548;2023-05-10T13:36:48;2.53;;;2.07;;
11582;SDS011;34299;50.820;4.548;2023-05-10T13:39:15;2.60;;;2.10;;
11582;SDS011;34299;50.820;4.548;2023-05-10T13:41:43;2.20;;;1.67;;
11582;SDS011;34299;50.820;4.548;2023-05-10T13:44:11;2.03;;;1.77;;
11582;SDS011;34299;50.820;4.548;2023-05-10T13:46:39;2.67;;;2.10;;
11582;SDS011;34299;50.820;4.548;2023-05-10T13:49:08;3.53;;;2.10;;
11582;SDS011;34299;50.820;4.548;2023-05-10T13:51:35;4.37;;;2.17;;
11582;SDS011;34299;50.820;4.548;2023-05-10T13:54:04;2.57;;;2.07;;
11582;SDS011;34299;50.820;4.548;2023-05-10T13:56:31;2.63;;;1.93;;
11582;SDS011;34299;50.820;4.548;2023-05-10T13:58:58;2.53;;;2.13;;
11582;SDS011;34299;50.820;4.548;2023-05-10T14:01:26;4.20;;;2.40;;
11582;SDS011;34299;50.820;4.548;2023-05-10T14:03:53;3.73;;;3.13;;
11582;SDS011;34299;50.820;4.548;2023-05-10T14:06:21;3.57;;;2.70;;
11582;SDS011;34299;50.820;4.548;2023-05-10T14:08:48;2.50;;;2.30;;
11582;SDS011;34299;50.820;4.548;2023-05-10T14:11:16;2.57;;;2.07;;
11582;SDS011;34299;50.820;4.548;2023-05-10T14:13:44;5.30;;;2.60;;
11582;SDS011;34299;50.820;4.548;2023-05-10T14:16:11;4.27;;;2.53;;
11582;SDS011;34299;50.820;4.548;2023-05-10T14:18:39;3.33;;;2.20;;
11582;SDS011;34299;50.820;4.548;2023-05-10T14:21:07;3.83;;;2.43;;
11582;SDS011;34299;50.820;4.548;2023-05-10T14:23:34;4.23;;;2.50;;
11582;SDS011;34299;50.820;4.548;2023-05-10T14:26:01;2.87;;;2.33;;
11582;SDS011;34299;50.820;4.548;2023-05-10T14:28:30;4.07;;;2.87;;
11582;SDS011;34299;50.820;4.548;2023-05-10T14:30:57;3.47;;;2.53;;
11582;SDS011;34299;50.820;4.548;2023-05-10T14:33:25;3.40;;;2.53;;
11582;SDS011;34299;50.820;4.548;2023-05-10T14:35:53;3.83;;;2.30;;
11582;SDS011;34299;50.820;4.548;2023-05-10T14:38:21;2.40;;;2.20;;
11582;SDS011;34299;50.820;4.548;2023-05-10T14:40:49;4.17;;;2.57;;
11582;SDS011;34299;50.820;4.548;2023-05-10T14:43:17;3.27;;;2.77;;
11582;SDS011;34299;50.820;4.548;2023-05-10T14:45:45;5.27;;;3.33;;
11582;SDS011;34299;50.820;4.548;2023-05-10T14:48:13;5.17;;;3.57;;
11582;SDS011;34299;50.820;4.548;2023-05-10T14:50:42;4.97;;;3.23;;
11582;SDS011;34299;50.820;4.548;2023-05-10T14:53:10;5.00;;;3.43;;
11582;SDS011;34299;50.820;4.548;2023-05-10T14:55:38;4.97;;;3.53;;
11582;SDS011;34299;50.820;4.548;2023-05-10T14:58:05;3.97;;;3.30;;
11582;SDS011;34299;50.820;4.548;2023-05-10T15:00:33;4.20;;;2.97;;